hwlogo.jpg (8581 bytes)
Home Your Weather Products Services Weather On Your Site Contact
HW Version Logo
Weather Info
Your Weather (Options)
Canadian Weather
International Weather
Enter your " Place, State", US Zip Code or ICAO:  
Forecast Information Radar Information
Saint Anthony, Newfoundland, Canada  Lat: 51.38N, Lon: 56.08W
ICAO Used: CYAY
Current Conditions
Updated: 1:30 AM NST MON FEB 19 2018
Sun & Moon Information
Mostly Clear
Mostly Clear
Temp: -12°C
Humidity: 92%
Wind Speed: WSW 12 MPH
Barometer: 1022 mb
Dewpoint: -13°C
Heat Index: -12°C
Wind Chill: -20°C
Civil Twilight: 6:49 AM NST Moon Phase:
Waxing Crescent Moon
Sunrise: 7:23 AM NST
Sunset: 5:33 PM NST
Civil Twilight: 6:07 PM NST
Forecast for Saint Anthony, NF:
(Forecast based on TAF for )
1042 PM NST SUN FEB 18 2018
  
OVERNIGHT MORNING
Fair Mostly
Cloudy
ZoneCast:
Dated: 1042 PM NST SUN FEB 18 2018
Overnight...Mostly cloudy with winds from the southsoutheast at 9 mph. Becoming fair with winds from the southsouthwest at 15 mph. Turning mostly cloudy with winds from the southsouthwest at 14 mph.

Morning...Mostly cloudy with winds from the southsouthwest at 14 mph.

Original Encoded TAF:
Dated: 1042 PM NST SUN FEB 18 2018
2018/02/19 02:42
TAF CYAY 190141Z 1902/1914 20008KT P6SM BKN060 
      TEMPO 1902/1906 P6SM -SHSN BKN025 OVC060 
      BECMG 1904/1906 25013KT 
     FM190600 25012KT P6SM BKN025 
      TEMPO 1906/1914 SCT025 
      RMK FCST BASED ON AUTO OBS. NXT FCST BY 190800Z